createdAt,value
2024-01-05T00:00:51.901Z,22.40
2024-01-05T00:03:19.058Z,25.00
2024-01-05T00:05:32.338Z,19.80
2024-01-05T00:07:46.340Z,16.00
2024-01-05T00:09:59.435Z,9.10
2024-01-05T00:12:13.394Z,9.90
2024-01-05T00:14:26.524Z,15.60
2024-01-05T00:16:39.881Z,25.40
2024-01-05T00:18:53.819Z,12.70
2024-01-05T00:21:07.146Z,13.10
2024-01-05T00:23:20.417Z,8.10
2024-01-05T00:25:33.517Z,9.50
2024-01-05T00:27:46.504Z,11.10
2024-01-05T00:29:59.492Z,10.30
2024-01-05T00:32:14.952Z,9.10
2024-01-05T00:34:29.312Z,7.70
2024-01-05T00:36:43.969Z,14.20
2024-01-05T00:38:57.393Z,25.50
2024-01-05T00:41:10.805Z,21.70
2024-01-05T00:43:23.921Z,24.60
2024-01-05T00:45:36.948Z,17.90
2024-01-05T00:47:50.290Z,27.10
2024-01-05T00:50:03.426Z,28.00
2024-01-05T00:52:17.121Z,17.50
2024-01-05T00:54:30.447Z,29.20
2024-01-05T00:56:44.090Z,18.80
2024-01-05T00:58:57.465Z,7.20
2024-01-05T01:01:13.168Z,6.90
2024-01-05T01:03:26.176Z,5.20
2024-01-05T01:05:39.561Z,7.80
2024-01-05T01:07:52.695Z,10.50
2024-01-05T01:10:05.635Z,8.30
2024-01-05T01:12:19.348Z,7.70
2024-01-05T01:14:32.508Z,9.50
2024-01-05T01:16:45.416Z,6.60
2024-01-05T01:18:58.561Z,7.00
2024-01-05T01:21:12.039Z,7.00
2024-01-05T01:23:25.354Z,15.50
2024-01-05T01:25:38.793Z,5.50
2024-01-05T01:27:52.538Z,5.40
2024-01-05T01:30:05.634Z,6.30
2024-01-05T01:32:18.941Z,8.10
2024-01-05T01:34:32.051Z,9.70
2024-01-05T01:36:45.330Z,8.50
2024-01-05T01:38:58.941Z,9.80
2024-01-05T01:41:12.071Z,6.20
2024-01-05T01:43:30.382Z,5.20
2024-01-05T01:45:43.475Z,7.00
2024-01-05T01:47:57.918Z,7.10
2024-01-05T01:50:12.564Z,7.30
2024-01-05T01:52:25.906Z,6.40
2024-01-05T01:54:40.268Z,5.70
2024-01-05T01:56:55.094Z,4.40
2024-01-05T01:59:09.764Z,6.20
2024-01-05T02:01:23.089Z,9.60
2024-01-05T02:03:36.486Z,8.70
2024-01-05T02:05:50.938Z,4.20
2024-01-05T02:08:05.281Z,4.90
2024-01-05T02:10:18.557Z,8.30
2024-01-05T02:12:31.902Z,6.90
2024-01-05T02:14:45.978Z,8.90
2024-01-05T02:16:59.067Z,12.90
2024-01-05T02:19:12.385Z,11.70
2024-01-05T02:21:35.394Z,7.10
2024-01-05T02:23:48.301Z,9.70
2024-01-05T02:26:03.000Z,3.70
2024-01-05T02:28:16.470Z,6.60
2024-01-05T02:30:29.401Z,7.40
2024-01-05T02:32:42.569Z,9.00
2024-01-05T02:34:55.544Z,7.60
2024-01-05T02:37:08.515Z,10.00
2024-01-05T02:39:21.590Z,7.70
2024-01-05T02:41:37.404Z,5.40
2024-01-05T02:43:51.316Z,6.10
2024-01-05T02:46:04.207Z,8.70
2024-01-05T02:48:18.122Z,5.70
2024-01-05T02:50:31.081Z,9.30
2024-01-05T02:52:44.962Z,6.40
2024-01-05T02:54:58.056Z,10.10
2024-01-05T02:57:11.515Z,13.60
2024-01-05T02:59:24.948Z,8.80
2024-01-05T03:01:38.299Z,14.00
2024-01-05T03:03:52.599Z,7.30
2024-01-05T03:06:05.664Z,7.70
2024-01-05T03:08:19.083Z,8.40
2024-01-05T03:10:32.105Z,9.00
2024-01-05T03:12:45.302Z,8.90
2024-01-05T03:14:58.355Z,9.90
2024-01-05T03:17:11.972Z,5.70
2024-01-05T03:19:25.229Z,10.30
2024-01-05T03:21:38.704Z,10.80
2024-01-05T03:23:52.442Z,14.70
2024-01-05T03:26:05.368Z,7.30
2024-01-05T03:28:18.832Z,13.20
2024-01-05T03:30:32.263Z,11.90
2024-01-05T03:32:46.281Z,13.20
2024-01-05T03:34:59.319Z,9.00
2024-01-05T03:37:12.401Z,7.30
2024-01-05T03:39:25.456Z,9.80
2024-01-05T03:41:39.628Z,6.30
2024-01-05T03:43:53.260Z,10.30
2024-01-05T03:46:06.444Z,8.60
2024-01-05T03:48:19.714Z,11.10
2024-01-05T03:50:32.857Z,8.30
2024-01-05T03:52:46.040Z,8.60
2024-01-05T03:54:59.155Z,7.50
2024-01-05T03:57:12.399Z,8.70
2024-01-05T03:59:25.482Z,4.00
2024-01-05T04:01:46.077Z,5.80
2024-01-05T04:04:00.085Z,12.30
2024-01-05T04:06:22.117Z,3.80
2024-01-05T04:08:35.368Z,7.40
2024-01-05T04:10:48.804Z,6.80
2024-01-05T04:13:03.074Z,6.70
2024-01-05T04:15:16.642Z,7.10
2024-01-05T04:17:29.663Z,7.90
2024-01-05T04:19:42.698Z,8.10
2024-01-05T04:21:56.238Z,5.10
2024-01-05T04:24:09.938Z,7.80
2024-01-05T04:26:23.075Z,9.70
2024-01-05T04:28:36.340Z,7.30
2024-01-05T04:30:49.535Z,8.10
2024-01-05T04:33:03.587Z,9.40
2024-01-05T04:35:17.129Z,8.40
2024-01-05T04:37:30.346Z,9.40
2024-01-05T04:39:46.044Z,7.00
2024-01-05T04:41:59.030Z,11.10
2024-01-05T04:44:12.631Z,6.80
2024-01-05T04:46:25.979Z,7.00
2024-01-05T04:48:40.009Z,12.00
2024-01-05T04:50:53.809Z,5.70
2024-01-05T04:53:07.158Z,6.80
2024-01-05T04:55:20.553Z,9.30
2024-01-05T04:57:34.129Z,11.60
2024-01-05T04:59:48.650Z,10.70
2024-01-05T05:02:02.750Z,17.20
2024-01-05T05:04:16.971Z,13.00
2024-01-05T05:06:30.275Z,13.30
2024-01-05T05:08:43.676Z,10.20
2024-01-05T05:10:56.730Z,10.20
2024-01-05T05:13:09.982Z,10.60
2024-01-05T05:15:23.269Z,12.20
2024-01-05T05:17:36.322Z,8.80
2024-01-05T05:19:50.725Z,9.10
2024-01-05T05:22:04.237Z,8.10
2024-01-05T05:24:17.284Z,12.60
2024-01-05T05:26:30.662Z,10.50
2024-01-05T05:28:43.816Z,11.50
2024-01-05T05:30:56.933Z,17.30
2024-01-05T05:33:10.676Z,16.40
2024-01-05T05:35:24.095Z,7.10
2024-01-05T05:37:37.033Z,11.50
2024-01-05T05:39:51.292Z,17.10
2024-01-05T05:42:26.098Z,8.80
2024-01-05T05:44:59.881Z,12.20
2024-01-05T05:48:25.621Z,6.90
2024-01-05T05:50:29.264Z,14.70
2024-01-05T05:53:06.156Z,6.30
2024-01-05T05:55:41.889Z,16.20
2024-01-05T05:58:29.357Z,9.70
2024-01-05T06:01:03.544Z,12.60
2024-01-05T06:03:38.622Z,13.60
2024-01-05T06:06:24.963Z,9.70
2024-01-05T06:08:53.836Z,18.50
2024-01-05T06:11:29.132Z,18.60
2024-01-05T06:13:56.072Z,19.30
2024-01-05T06:16:32.793Z,16.90
2024-01-05T06:19:06.560Z,11.60
2024-01-05T06:21:40.891Z,17.60
2024-01-05T06:24:16.030Z,17.30
2024-01-05T06:26:43.865Z,13.80
2024-01-05T06:29:06.742Z,10.60
2024-01-05T06:31:41.724Z,18.30
2024-01-05T06:34:17.101Z,21.90
2024-01-05T06:36:52.304Z,16.00
2024-01-05T06:39:29.086Z,23.50
2024-01-05T06:42:05.099Z,21.40
2024-01-05T06:44:34.470Z,10.40
2024-01-05T06:47:09.679Z,13.10
2024-01-05T06:49:44.402Z,13.80
2024-01-05T06:52:19.140Z,15.40
2024-01-05T06:54:48.264Z,10.60
2024-01-05T06:57:23.530Z,11.50
2024-01-05T06:59:51.169Z,13.50
2024-01-05T07:02:26.081Z,10.70
2024-01-05T07:05:00.540Z,19.30
2024-01-05T07:07:42.044Z,6.00
2024-01-05T07:10:17.126Z,16.50
2024-01-05T07:12:52.137Z,21.70
2024-01-05T07:15:20.711Z,12.00
2024-01-05T07:17:56.088Z,22.20
2024-01-05T07:20:59.920Z,9.80
2024-01-05T07:23:15.839Z,11.30
2024-01-05T07:25:50.630Z,27.90
2024-01-05T07:28:25.836Z,64.90
2024-01-05T07:31:00.201Z,51.50
2024-01-05T07:33:34.511Z,21.40
2024-01-05T07:36:12.227Z,38.60
2024-01-05T07:38:47.001Z,86.40
2024-01-05T07:41:25.855Z,89.60
2024-01-05T07:44:00.983Z,44.90
2024-01-05T07:46:35.641Z,62.10
2024-01-05T07:49:00.002Z,54.40
2024-01-05T07:51:34.296Z,94.60
2024-01-05T07:54:02.170Z,121.00
2024-01-05T07:56:40.418Z,59.50
2024-01-05T07:59:13.459Z,65.00
2024-01-05T08:01:34.529Z,89.50
2024-01-05T08:03:57.227Z,96.80
2024-01-05T08:06:15.033Z,60.20
2024-01-05T08:08:32.468Z,44.40
2024-01-05T08:10:48.879Z,28.60
2024-01-05T08:13:28.322Z,25.10
2024-01-05T08:16:03.506Z,21.50
2024-01-05T08:18:29.120Z,18.70
2024-01-05T08:21:04.849Z,19.80
2024-01-05T08:23:33.328Z,16.30
2024-01-05T08:26:07.967Z,25.50
2024-01-05T08:28:42.220Z,31.00
2024-01-05T08:31:10.610Z,56.80
2024-01-05T08:33:46.022Z,67.40
2024-01-05T08:36:20.315Z,95.40
2024-01-05T08:38:55.362Z,95.50
2024-01-05T08:41:17.946Z,64.70
2024-01-05T08:43:54.223Z,70.10
2024-01-05T08:46:16.946Z,69.40
2024-01-05T08:48:41.298Z,65.60
2024-01-05T08:50:57.918Z,72.60
2024-01-05T08:53:32.457Z,56.70
2024-01-05T08:56:05.036Z,66.10
2024-01-05T08:58:32.878Z,44.30
2024-01-05T09:01:03.753Z,56.50
2024-01-05T09:03:39.802Z,56.30
2024-01-05T09:06:17.040Z,64.40
2024-01-05T09:08:44.643Z,50.80
2024-01-05T09:11:10.093Z,75.00
2024-01-05T09:13:44.114Z,78.30
2024-01-05T09:16:06.477Z,44.70
2024-01-05T09:18:36.403Z,37.50
2024-01-05T09:21:02.325Z,34.90
2024-01-05T09:23:20.314Z,38.70
2024-01-05T09:25:41.341Z,50.90
2024-01-05T09:28:17.831Z,31.10
2024-01-05T09:30:34.745Z,39.40
2024-01-05T09:33:06.614Z,21.90
2024-01-05T09:35:42.099Z,38.70
2024-01-05T09:38:19.583Z,24.50
2024-01-05T09:40:55.971Z,29.00
2024-01-05T09:43:32.224Z,28.60
2024-01-05T09:46:06.624Z,52.40
2024-01-05T09:48:39.969Z,21.60
2024-01-05T09:51:23.783Z,15.90
2024-01-05T09:53:58.628Z,36.70
2024-01-05T09:56:26.446Z,28.60
2024-01-05T09:59:00.536Z,22.50
2024-01-05T10:01:41.698Z,43.20
2024-01-05T10:04:11.588Z,31.70
2024-01-05T10:06:39.200Z,37.90
2024-01-05T10:08:59.075Z,34.70
2024-01-05T10:11:37.681Z,36.80
2024-01-05T10:14:15.567Z,43.20
2024-01-05T10:16:50.140Z,26.00
2024-01-05T10:19:24.835Z,32.90
2024-01-05T10:21:58.163Z,17.40
2024-01-05T10:24:32.591Z,30.70
2024-01-05T10:27:04.668Z,49.30
2024-01-05T10:29:27.776Z,29.30
2024-01-05T10:31:43.164Z,19.30
2024-01-05T10:34:18.351Z,48.70
2024-01-05T10:36:41.414Z,48.90
2024-01-05T10:39:16.874Z,27.60
2024-01-05T10:41:51.490Z,33.70
2024-01-05T10:44:29.513Z,76.40
2024-01-05T10:46:47.843Z,61.40
2024-01-05T10:49:01.878Z,61.70
2024-01-05T10:51:21.432Z,79.20
2024-01-05T10:53:38.649Z,60.60
2024-01-05T10:55:53.890Z,93.20
2024-01-05T10:58:27.875Z,68.10
2024-01-05T11:00:42.748Z,60.30
2024-01-05T11:03:00.083Z,87.90
2024-01-05T11:05:36.335Z,54.20
2024-01-05T11:07:52.856Z,54.50
2024-01-05T11:10:26.176Z,82.40
2024-01-05T11:13:13.872Z,106.90
2024-01-05T11:15:48.049Z,81.20
2024-01-05T11:18:52.432Z,78.50
2024-01-05T11:21:40.685Z,43.70
2024-01-05T11:24:20.060Z,63.10
2024-01-05T11:26:41.480Z,61.10
2024-01-05T11:28:56.243Z,72.00
2024-01-05T11:31:14.259Z,67.10
2024-01-05T11:33:55.260Z,107.50
2024-01-05T11:36:12.441Z,81.70
2024-01-05T11:38:38.691Z,63.60
2024-01-05T11:41:23.457Z,115.00
2024-01-05T11:43:48.186Z,110.60
2024-01-05T11:46:06.045Z,94.80
2024-01-05T11:48:56.213Z,135.60
2024-01-05T11:51:29.702Z,106.20
2024-01-05T11:53:48.271Z,103.50
2024-01-05T11:56:05.634Z,99.80
2024-01-05T11:58:30.833Z,119.60
2024-01-05T12:00:47.604Z,86.50
2024-01-05T12:03:11.155Z,91.20
2024-01-05T12:05:26.133Z,136.80
2024-01-05T12:07:49.200Z,144.40
2024-01-05T12:10:02.741Z,117.80
2024-01-05T12:12:28.413Z,110.10
2024-01-05T12:14:50.800Z,81.60
2024-01-05T12:17:20.506Z,102.40
2024-01-05T12:19:38.344Z,72.30
2024-01-05T12:21:58.396Z,120.50
2024-01-05T12:24:33.121Z,110.30
2024-01-05T12:27:07.604Z,106.70
2024-01-05T12:29:45.178Z,67.70
2024-01-05T12:32:21.477Z,117.70
2024-01-05T12:34:54.859Z,126.80
2024-01-05T12:37:30.130Z,120.20
2024-01-05T12:39:53.853Z,103.70
2024-01-05T12:42:12.300Z,74.80
2024-01-05T12:44:26.780Z,136.70
2024-01-05T12:46:53.070Z,116.80
2024-01-05T12:49:25.358Z,56.90
2024-01-05T12:51:39.441Z,39.10
2024-01-05T12:54:01.598Z,40.00
2024-01-05T12:56:16.584Z,57.00
2024-01-05T12:58:35.879Z,75.60
2024-01-05T13:01:10.034Z,115.40
2024-01-05T13:03:24.227Z,99.30
2024-01-05T13:05:41.719Z,69.70
2024-01-05T13:08:06.869Z,63.70
2024-01-05T13:10:41.169Z,53.30
2024-01-05T13:13:14.911Z,52.20
2024-01-05T13:15:49.613Z,94.00
2024-01-05T13:18:12.691Z,87.50
2024-01-05T13:20:36.473Z,73.50
2024-01-05T13:23:11.997Z,103.30
2024-01-05T13:25:45.934Z,108.00
2024-01-05T13:28:20.396Z,137.00
2024-01-05T13:30:54.814Z,122.30
2024-01-05T13:33:19.843Z,95.70
2024-01-05T13:35:55.289Z,83.60
2024-01-05T13:38:29.350Z,82.90
2024-01-05T13:41:03.762Z,115.60
2024-01-05T13:43:38.881Z,105.90
2024-01-05T13:46:12.947Z,89.20
2024-01-05T13:48:47.837Z,91.40
2024-01-05T13:51:22.128Z,81.70
2024-01-05T13:53:47.963Z,77.70
2024-01-05T13:56:22.522Z,82.00
2024-01-05T13:58:45.374Z,106.90
2024-01-05T14:01:20.163Z,88.00
2024-01-05T14:03:53.904Z,40.60
2024-01-05T14:06:26.997Z,31.60
2024-01-05T14:09:01.877Z,48.60
2024-01-05T14:11:21.714Z,78.50
2024-01-05T14:13:54.241Z,90.40
2024-01-05T14:16:19.861Z,166.80
2024-01-05T14:18:54.371Z,144.10
2024-01-05T14:21:25.035Z,141.40
2024-01-05T14:23:57.960Z,138.30
2024-01-05T14:26:22.095Z,122.20
2024-01-05T14:28:56.393Z,111.00
2024-01-05T14:31:33.129Z,135.50
2024-01-05T14:34:00.134Z,150.40
2024-01-05T14:36:34.059Z,160.00
2024-01-05T14:39:08.095Z,212.00
2024-01-05T14:41:41.813Z,156.10
2024-01-05T14:44:16.305Z,176.30
2024-01-05T14:46:40.011Z,122.70
2024-01-05T14:49:14.162Z,119.50
2024-01-05T14:51:51.395Z,117.90
2024-01-05T14:54:08.682Z,87.50
2024-01-05T14:56:42.469Z,65.90
2024-01-05T14:59:16.555Z,101.00
2024-01-05T15:01:29.789Z,53.10
2024-01-05T15:03:53.649Z,66.00
2024-01-05T15:06:18.892Z,42.20
2024-01-05T15:08:41.874Z,40.80
2024-01-05T15:11:24.467Z,23.70
2024-01-05T15:13:59.226Z,19.00
2024-01-05T15:16:23.953Z,23.20
2024-01-05T15:18:41.203Z,10.50
2024-01-05T15:21:15.954Z,24.90
2024-01-05T15:23:51.016Z,30.20
2024-01-05T15:26:16.421Z,50.40
2024-01-05T15:28:43.545Z,28.60
2024-01-05T15:31:10.857Z,14.90
2024-01-05T15:33:44.425Z,17.20
2024-01-05T15:36:07.949Z,17.50
2024-01-05T15:38:41.161Z,17.70
2024-01-05T15:40:57.510Z,17.40
2024-01-05T15:43:31.626Z,12.70
2024-01-05T15:46:06.688Z,11.60
2024-01-05T15:48:41.408Z,18.20
2024-01-05T15:51:16.439Z,17.40
2024-01-05T15:53:52.417Z,15.60
2024-01-05T15:56:26.609Z,14.40
2024-01-05T15:58:59.977Z,22.30
2024-01-05T16:01:34.276Z,26.00
2024-01-05T16:04:09.256Z,23.80
2024-01-05T16:06:43.439Z,22.00
2024-01-05T16:09:18.626Z,21.10
2024-01-05T16:11:53.183Z,19.40
2024-01-05T16:14:26.682Z,15.40
2024-01-05T16:16:54.632Z,23.80
2024-01-05T16:19:28.583Z,13.60
2024-01-05T16:22:02.115Z,22.80
2024-01-05T16:24:30.269Z,21.50
2024-01-05T16:27:04.720Z,15.80
2024-01-05T16:29:37.942Z,14.70
2024-01-05T16:31:55.837Z,23.00
2024-01-05T16:34:21.687Z,19.40
2024-01-05T16:36:56.249Z,18.70
2024-01-05T16:39:30.801Z,24.90
2024-01-05T16:42:05.695Z,31.50
2024-01-05T16:44:39.616Z,27.30
2024-01-05T16:49:16.497Z,21.90
2024-01-05T16:51:50.359Z,53.90
2024-01-05T16:54:07.063Z,62.90
2024-01-05T16:56:31.399Z,62.50
2024-01-05T16:58:48.182Z,115.10
2024-01-05T17:01:22.706Z,52.20
2024-01-05T17:03:59.296Z,61.70
2024-01-05T17:06:19.992Z,134.40
2024-01-05T17:08:43.996Z,136.60
2024-01-05T17:11:19.215Z,147.10
2024-01-05T17:13:37.192Z,118.20
2024-01-05T17:15:53.351Z,68.90
2024-01-05T17:18:21.550Z,93.50
2024-01-05T17:20:58.221Z,135.70
2024-01-05T17:23:32.664Z,77.30
2024-01-05T17:26:06.555Z,43.70
2024-01-05T17:28:41.432Z,47.20
2024-01-05T17:31:15.882Z,49.80
2024-01-05T17:33:43.757Z,36.40
2024-01-05T17:36:11.942Z,44.90
2024-01-05T17:38:45.662Z,42.30
2024-01-05T17:41:00.831Z,42.20
2024-01-05T17:43:34.744Z,43.30
2024-01-05T17:45:48.453Z,48.20
2024-01-05T17:48:26.823Z,63.40
2024-01-05T17:50:40.109Z,44.30
2024-01-05T17:53:05.630Z,60.00
2024-01-05T17:55:23.243Z,71.80
2024-01-05T17:57:57.637Z,80.00
2024-01-05T18:00:31.272Z,57.70
2024-01-05T18:03:05.746Z,29.80
2024-01-05T18:05:30.698Z,41.50
2024-01-05T18:08:05.294Z,28.90
2024-01-05T18:10:39.600Z,46.80
2024-01-05T18:12:57.577Z,42.00
2024-01-05T18:15:31.866Z,34.50
2024-01-05T18:17:54.454Z,47.80
2024-01-05T18:20:22.163Z,44.70
2024-01-05T18:22:46.221Z,53.80
2024-01-05T18:25:20.134Z,45.30
2024-01-05T18:27:54.785Z,57.70
2024-01-05T18:30:29.132Z,44.80
2024-01-05T18:32:53.944Z,57.20
2024-01-05T18:35:08.803Z,46.60
2024-01-05T18:37:33.827Z,42.60
2024-01-05T18:39:47.416Z,49.60
2024-01-05T18:42:01.212Z,43.00
2024-01-05T18:44:15.983Z,54.20
2024-01-05T18:46:29.832Z,79.20
2024-01-05T18:48:44.667Z,100.20
2024-01-05T18:50:57.792Z,116.60
2024-01-05T18:53:11.469Z,118.00
2024-01-05T18:55:24.990Z,111.40
2024-01-05T18:57:38.149Z,116.60
2024-01-05T18:59:51.368Z,129.10
2024-01-05T19:02:06.392Z,124.20
2024-01-05T19:04:21.575Z,136.20
2024-01-05T19:06:35.258Z,100.10
2024-01-05T19:08:48.630Z,54.70
2024-01-05T19:11:02.715Z,56.00
2024-01-05T19:13:17.320Z,27.50
2024-01-05T19:15:30.262Z,50.30
2024-01-05T19:17:45.416Z,48.80
2024-01-05T19:19:59.035Z,54.80
2024-01-05T19:22:12.865Z,43.30
2024-01-05T19:24:26.471Z,44.10
2024-01-05T19:26:41.479Z,33.50
2024-01-05T19:28:54.565Z,61.60
2024-01-05T19:31:09.013Z,54.40
2024-01-05T19:33:22.746Z,36.80
2024-01-05T19:35:36.764Z,54.10
2024-01-05T19:37:50.437Z,45.10
2024-01-05T19:40:03.736Z,51.20
2024-01-05T19:42:20.390Z,52.10
2024-01-05T19:44:34.443Z,73.70
2024-01-05T19:46:47.368Z,48.20
2024-01-05T19:49:00.708Z,37.90
2024-01-05T19:51:15.162Z,45.40
2024-01-05T19:53:28.043Z,49.20
2024-01-05T19:55:42.109Z,44.80
2024-01-05T19:57:55.291Z,32.50
2024-01-05T20:00:09.686Z,38.60
2024-01-05T20:02:22.960Z,42.20
2024-01-05T20:04:36.313Z,55.60
2024-01-05T20:06:50.517Z,50.30
2024-01-05T20:09:03.598Z,41.60
2024-01-05T20:11:19.139Z,43.00
2024-01-05T20:13:32.870Z,38.30
2024-01-05T20:15:46.495Z,50.70
2024-01-05T20:18:01.225Z,36.90
2024-01-05T20:20:15.750Z,45.10
2024-01-05T20:22:29.006Z,50.50
2024-01-05T20:24:42.078Z,64.20
2024-01-05T20:26:56.803Z,36.60
2024-01-05T20:29:10.186Z,36.90
2024-01-05T20:31:23.817Z,33.80
2024-01-05T20:33:37.499Z,30.60
2024-01-05T20:35:50.819Z,24.80
2024-01-05T20:38:05.413Z,38.20
2024-01-05T20:40:20.376Z,40.50
2024-01-05T20:42:33.341Z,62.60
2024-01-05T20:44:46.913Z,31.90
2024-01-05T20:47:03.512Z,26.70
2024-01-05T20:49:16.798Z,31.10
2024-01-05T20:51:30.284Z,29.30
2024-01-05T20:53:43.387Z,24.70
2024-01-05T20:55:57.624Z,35.60
2024-01-05T20:58:10.905Z,27.00
2024-01-05T21:00:25.030Z,42.80
2024-01-05T21:02:38.134Z,27.80
2024-01-05T21:04:52.757Z,24.90
2024-01-05T21:07:07.133Z,25.70
2024-01-05T21:09:22.047Z,24.80
2024-01-05T21:11:36.127Z,28.90
2024-01-05T21:13:49.278Z,27.10
2024-01-05T21:16:03.679Z,31.80
2024-01-05T21:18:17.564Z,45.30
2024-01-05T21:20:30.926Z,28.50
2024-01-05T21:22:44.294Z,58.10
2024-01-05T21:24:57.513Z,37.60
2024-01-05T21:27:11.946Z,28.40
2024-01-05T21:29:25.263Z,26.20
2024-01-05T21:31:38.470Z,31.70
2024-01-05T21:33:52.032Z,25.20
2024-01-05T21:36:05.483Z,36.70
2024-01-05T21:38:18.925Z,32.70
2024-01-05T21:40:32.814Z,47.30
2024-01-05T21:42:46.162Z,34.20
2024-01-05T21:44:59.334Z,33.90
2024-01-05T21:47:13.137Z,37.00
2024-01-05T21:49:27.275Z,36.90
2024-01-05T21:51:40.736Z,38.90
2024-01-05T21:53:54.358Z,28.70
2024-01-05T21:56:07.746Z,26.30
2024-01-05T21:58:20.899Z,48.00
2024-01-05T22:00:34.460Z,25.90
2024-01-05T22:02:48.698Z,30.60
2024-01-05T22:05:02.930Z,37.80
2024-01-05T22:07:17.008Z,42.40
2024-01-05T22:09:31.195Z,38.00
2024-01-05T22:11:49.020Z,39.80
2024-01-05T22:14:01.972Z,33.70
2024-01-05T22:16:19.663Z,35.90
2024-01-05T22:18:39.970Z,36.30
2024-01-05T22:20:52.867Z,40.60
2024-01-05T22:23:06.885Z,37.60
2024-01-05T22:25:20.009Z,36.40
2024-01-05T22:27:33.529Z,26.70
2024-01-05T22:29:46.952Z,34.50
2024-01-05T22:32:00.569Z,22.50
2024-01-05T22:34:14.390Z,44.00
2024-01-05T22:36:27.680Z,34.90
2024-01-05T22:38:40.799Z,33.30
2024-01-05T22:40:54.159Z,31.90
2024-01-05T22:43:08.371Z,43.50
2024-01-05T22:45:21.798Z,43.10
2024-01-05T22:47:34.853Z,47.10
2024-01-05T22:49:47.976Z,39.50
2024-01-05T22:52:01.427Z,33.60
2024-01-05T22:54:15.173Z,42.00
2024-01-05T22:56:28.268Z,50.90
2024-01-05T22:58:41.624Z,87.50
2024-01-05T23:00:55.404Z,82.40
2024-01-05T23:03:13.308Z,74.30
2024-01-05T23:05:26.618Z,78.70
2024-01-05T23:07:39.728Z,66.20
2024-01-05T23:09:52.743Z,92.40
2024-01-05T23:12:05.908Z,76.20
2024-01-05T23:14:19.680Z,90.10
2024-01-05T23:16:32.938Z,63.20
2024-01-05T23:18:46.173Z,64.40
2024-01-05T23:20:59.547Z,65.60
2024-01-05T23:23:13.640Z,87.90
2024-01-05T23:25:26.859Z,54.60
2024-01-05T23:27:40.289Z,52.60
2024-01-05T23:29:53.633Z,67.40
2024-01-05T23:32:09.500Z,46.20
2024-01-05T23:34:22.588Z,46.40
2024-01-05T23:36:35.912Z,43.50
2024-01-05T23:38:50.679Z,36.20
2024-01-05T23:41:04.338Z,49.50
2024-01-05T23:43:17.322Z,52.40
2024-01-05T23:45:30.588Z,43.70
2024-01-05T23:47:44.731Z,58.30
2024-01-05T23:50:00.530Z,50.40
2024-01-05T23:52:16.454Z,49.90
2024-01-05T23:54:32.147Z,56.20
2024-01-05T23:56:46.343Z,43.40
2024-01-05T23:58:59.828Z,39.00
